createdAt,value
2018-07-01T00:01:00.942Z,9.00
2018-07-01T00:03:29.245Z,8.47
2018-07-01T00:05:57.564Z,8.80
2018-07-01T00:08:25.860Z,9.00
2018-07-01T00:10:54.117Z,8.43
2018-07-01T00:13:22.365Z,9.37
2018-07-01T00:15:50.711Z,8.20
2018-07-01T00:18:19.048Z,8.40
2018-07-01T00:20:47.379Z,8.40
2018-07-01T00:23:15.759Z,8.97
2018-07-01T00:25:44.194Z,9.60
2018-07-01T00:28:12.619Z,9.00
2018-07-01T00:30:40.964Z,8.57
2018-07-01T00:33:09.371Z,8.30
2018-07-01T00:35:37.713Z,8.60
2018-07-01T00:38:12.689Z,8.93
2018-07-01T00:40:41.051Z,9.50
2018-07-01T00:43:09.434Z,8.83
2018-07-01T00:45:37.773Z,8.57
2018-07-01T00:48:06.177Z,8.97
2018-07-01T00:50:34.522Z,9.50
2018-07-01T00:53:02.897Z,9.10
2018-07-01T00:55:31.229Z,8.97
2018-07-01T00:57:59.590Z,9.60
2018-07-01T01:00:32.848Z,10.33
2018-07-01T01:03:02.326Z,10.10
2018-07-01T01:05:30.926Z,10.10
2018-07-01T01:07:59.777Z,8.00
2018-07-01T01:10:28.268Z,9.27
2018-07-01T01:12:57.919Z,8.70
2018-07-01T01:15:26.261Z,9.70
2018-07-01T01:17:54.840Z,9.73
2018-07-01T01:20:23.153Z,9.97
2018-07-01T01:22:51.442Z,9.70
2018-07-01T01:25:19.697Z,9.70
2018-07-01T01:27:47.970Z,9.80
2018-07-01T01:30:16.273Z,10.13
2018-07-01T01:32:44.600Z,9.37
2018-07-01T01:35:12.835Z,9.50
2018-07-01T01:37:41.151Z,9.80
2018-07-01T01:40:11.546Z,10.30
2018-07-01T01:42:44.613Z,8.93
2018-07-01T01:45:18.290Z,10.13
2018-07-01T01:47:49.826Z,10.20
2018-07-01T01:50:26.190Z,10.37
2018-07-01T01:53:02.853Z,9.87
2018-07-01T01:55:36.718Z,9.93
2018-07-01T01:58:11.034Z,9.90
2018-07-01T02:01:17.466Z,10.30
2018-07-01T02:03:51.514Z,10.57
2018-07-01T02:06:23.220Z,9.73
2018-07-01T02:08:59.773Z,11.50
2018-07-01T02:11:29.392Z,10.43
2018-07-01T02:14:01.808Z,10.70
2018-07-01T02:16:36.431Z,10.00
2018-07-01T02:19:04.978Z,9.87
2018-07-01T02:21:33.337Z,10.97
2018-07-01T02:24:05.309Z,10.57
2018-07-01T02:26:33.735Z,9.67
2018-07-01T02:29:02.528Z,10.10
2018-07-01T02:31:30.840Z,10.43
2018-07-01T02:33:59.202Z,10.70
2018-07-01T02:36:27.533Z,10.40
2018-07-01T02:38:55.888Z,9.30
2018-07-01T02:41:24.229Z,9.83
2018-07-01T02:43:52.532Z,8.83
2018-07-01T02:46:20.868Z,9.00
2018-07-01T02:48:49.141Z,9.40
2018-07-01T02:51:17.449Z,8.60
2018-07-01T02:53:45.811Z,8.80
2018-07-01T02:56:14.093Z,8.87
2018-07-01T02:58:42.385Z,8.90
2018-07-01T03:01:10.725Z,8.03
2018-07-01T03:03:38.979Z,6.93
2018-07-01T03:06:07.265Z,7.43
2018-07-01T03:08:35.637Z,6.00
2018-07-01T03:11:04.015Z,7.00
2018-07-01T03:13:32.334Z,6.37
2018-07-01T03:16:00.584Z,6.20
2018-07-01T03:18:29.177Z,6.53
2018-07-01T03:20:57.462Z,6.43
2018-07-01T03:23:25.787Z,6.30
2018-07-01T03:25:54.185Z,5.40
2018-07-01T03:28:22.503Z,5.53
2018-07-01T03:30:50.779Z,4.70
2018-07-01T03:33:25.703Z,4.87
2018-07-01T03:35:54.085Z,3.63
2018-07-01T03:38:22.368Z,3.60
2018-07-01T03:40:50.753Z,3.60
2018-07-01T03:43:19.040Z,4.40
2018-07-01T03:45:47.437Z,4.23
2018-07-01T03:48:15.756Z,4.80
2018-07-01T03:50:44.124Z,4.30
2018-07-01T03:53:12.381Z,3.93
2018-07-01T03:55:40.645Z,4.47
2018-07-01T03:58:09.087Z,4.33
2018-07-01T04:00:37.488Z,4.20
2018-07-01T04:03:05.851Z,2.80
2018-07-01T04:05:34.170Z,3.27
2018-07-01T04:08:02.433Z,2.70
2018-07-01T04:10:30.763Z,2.60
2018-07-01T04:12:59.098Z,2.30
2018-07-01T04:15:27.379Z,3.00
2018-07-01T04:17:55.692Z,3.23
2018-07-01T04:20:24.097Z,3.33
2018-07-01T04:22:52.472Z,2.70
2018-07-01T04:25:20.822Z,3.13
2018-07-01T04:27:49.194Z,2.80
2018-07-01T04:30:17.562Z,3.27
2018-07-01T04:32:45.929Z,3.33
2018-07-01T04:35:14.306Z,2.90
2018-07-01T04:37:42.647Z,2.90
2018-07-01T04:40:10.962Z,2.90
2018-07-01T04:42:39.053Z,2.90
2018-07-01T04:45:07.445Z,2.37
2018-07-01T04:47:35.978Z,2.50
2018-07-01T04:50:04.700Z,2.07
2018-07-01T04:52:33.168Z,2.40
2018-07-01T04:55:01.521Z,2.43
2018-07-01T04:57:29.766Z,2.13
2018-07-01T04:59:58.155Z,2.50
2018-07-01T05:02:26.581Z,2.20
2018-07-01T05:04:55.009Z,2.27
2018-07-01T05:07:23.469Z,2.70
2018-07-01T05:09:51.924Z,2.27
2018-07-01T05:12:20.229Z,2.23
2018-07-01T05:14:48.489Z,2.07
2018-07-01T05:17:16.874Z,2.63
2018-07-01T05:19:45.115Z,1.80
2018-07-01T05:22:13.473Z,2.20
2018-07-01T05:24:41.955Z,2.23
2018-07-01T05:27:10.319Z,2.20
2018-07-01T05:29:38.572Z,3.00
2018-07-01T05:32:07.160Z,2.30
2018-07-01T05:34:35.548Z,2.60
2018-07-01T05:37:03.856Z,2.40
2018-07-01T05:39:32.114Z,2.47
2018-07-01T05:42:00.399Z,2.00
2018-07-01T05:44:28.700Z,2.13
2018-07-01T05:46:57.035Z,2.13
2018-07-01T05:49:25.483Z,2.40
2018-07-01T05:51:54.266Z,2.43
2018-07-01T05:54:23.223Z,2.10
2018-07-01T05:56:53.802Z,2.00
2018-07-01T05:59:22.622Z,1.90
2018-07-01T06:01:51.303Z,2.20
2018-07-01T06:04:19.633Z,2.10
2018-07-01T06:06:47.890Z,2.50
2018-07-01T06:09:16.182Z,2.07
2018-07-01T06:11:44.204Z,2.77
2018-07-01T06:14:12.692Z,2.33
2018-07-01T06:16:40.964Z,2.23
2018-07-01T06:19:09.463Z,2.50
2018-07-01T06:21:37.895Z,2.10
2018-07-01T06:24:06.148Z,2.30
2018-07-01T06:26:34.401Z,2.20
2018-07-01T06:29:03.521Z,2.33
2018-07-01T06:31:31.716Z,2.27
2018-07-01T06:34:01.143Z,1.87
2018-07-01T06:36:29.751Z,2.33
2018-07-01T06:38:57.981Z,2.30
2018-07-01T06:41:28.005Z,2.57
2018-07-01T06:43:56.459Z,2.70
2018-07-01T06:46:24.843Z,2.10
2018-07-01T06:48:53.302Z,2.50
2018-07-01T06:51:21.679Z,2.30
2018-07-01T06:53:50.195Z,2.40
2018-07-01T06:56:18.590Z,2.83
2018-07-01T06:58:46.901Z,2.67
2018-07-01T07:01:15.076Z,2.80
2018-07-01T07:03:46.802Z,2.70
2018-07-01T07:06:15.085Z,2.53
2018-07-01T07:08:43.294Z,2.07
2018-07-01T07:11:11.701Z,2.10
2018-07-01T07:13:40.016Z,2.30
2018-07-01T07:16:08.317Z,2.57
2018-07-01T07:18:37.032Z,2.60
2018-07-01T07:21:05.574Z,2.53
2018-07-01T07:23:34.004Z,2.73
2018-07-01T07:26:02.780Z,2.70
2018-07-01T07:28:31.223Z,2.70
2018-07-01T07:30:59.580Z,3.00
2018-07-01T07:33:27.894Z,3.00
2018-07-01T07:35:56.261Z,2.67
2018-07-01T07:38:24.630Z,2.90
2018-07-01T07:40:53.001Z,2.80
2018-07-01T07:43:21.332Z,3.50
2018-07-01T07:45:49.683Z,3.30
2018-07-01T07:48:18.102Z,2.90
2018-07-01T07:50:46.424Z,3.07
2018-07-01T07:53:14.803Z,3.30
2018-07-01T07:55:43.102Z,3.63
2018-07-01T07:58:11.590Z,3.30
2018-07-01T08:00:40.015Z,5.87
2018-07-01T08:03:08.473Z,4.80
2018-07-01T08:05:36.846Z,4.00
2018-07-01T08:08:05.406Z,3.90
2018-07-01T08:10:33.614Z,3.40
2018-07-01T08:13:01.912Z,3.70
2018-07-01T08:15:30.999Z,4.03
2018-07-01T08:17:59.236Z,3.30
2018-07-01T08:20:28.826Z,3.00
2018-07-01T08:22:57.268Z,3.17
2018-07-01T08:25:26.351Z,3.30
2018-07-01T08:27:54.952Z,3.57
2018-07-01T08:30:23.591Z,3.00
2018-07-01T08:32:52.176Z,3.53
2018-07-01T08:35:20.821Z,3.57
2018-07-01T08:37:49.490Z,3.20
2018-07-01T08:40:18.153Z,3.10
2018-07-01T08:42:46.748Z,3.20
2018-07-01T08:45:15.472Z,3.00
2018-07-01T08:47:44.633Z,3.00
2018-07-01T08:50:13.213Z,3.30
2018-07-01T08:52:52.781Z,3.30
2018-07-01T08:55:27.849Z,6.13
2018-07-01T09:01:26.261Z,3.23
2018-07-01T09:04:26.205Z,2.80
2018-07-01T09:08:11.526Z,3.20
2018-07-01T09:11:27.556Z,3.30
2018-07-01T09:31:59.864Z,3.20
2018-07-01T09:34:32.976Z,3.80
2018-07-01T09:37:02.481Z,3.60
2018-07-01T09:39:31.150Z,3.17
2018-07-01T09:42:02.423Z,3.80
2018-07-01T09:44:39.161Z,3.50
2018-07-01T09:49:48.126Z,3.17
2018-07-01T09:52:16.910Z,3.73
2018-07-01T09:54:46.397Z,4.27
2018-07-01T09:57:17.343Z,3.30
2018-07-01T09:59:48.567Z,3.70
2018-07-01T10:02:22.729Z,4.07
2018-07-01T10:04:51.651Z,3.43
2018-07-01T10:07:20.970Z,3.17
2018-07-01T10:09:51.413Z,3.50
2018-07-01T10:12:20.199Z,2.93
2018-07-01T10:14:50.765Z,4.00
2018-07-01T10:17:20.279Z,3.70
2018-07-01T10:19:49.073Z,3.47
2018-07-01T10:22:18.540Z,3.40
2018-07-01T10:24:48.315Z,3.50
2018-07-01T10:27:17.032Z,2.90
2018-07-01T10:29:45.715Z,8.70
2018-07-01T10:32:14.326Z,3.53
2018-07-01T10:34:43.220Z,3.53
2018-07-01T10:37:12.709Z,3.10
2018-07-01T10:39:41.325Z,3.93
2018-07-01T10:42:11.323Z,3.23
2018-07-01T10:44:43.756Z,3.20
2018-07-01T10:47:12.963Z,3.60
2018-07-01T10:49:41.589Z,3.20
2018-07-01T10:52:10.306Z,3.30
2018-07-01T10:54:38.960Z,3.30
2018-07-01T10:57:08.806Z,3.50
2018-07-01T10:59:37.561Z,3.40
2018-07-01T11:02:07.522Z,3.23
2018-07-01T11:04:36.215Z,3.33
2018-07-01T11:07:05.072Z,3.60
2018-07-01T11:09:33.752Z,3.97
2018-07-01T11:12:03.357Z,3.60
2018-07-01T11:14:34.794Z,3.40
2018-07-01T11:17:04.870Z,3.50
2018-07-01T11:19:33.541Z,3.93
2018-07-01T11:22:02.813Z,3.50
2018-07-01T11:24:32.487Z,3.83
2018-07-01T11:27:01.537Z,3.77
2018-07-01T11:29:30.083Z,3.50
2018-07-01T11:31:58.778Z,3.80
2018-07-01T11:34:27.545Z,3.43
2018-07-01T11:36:56.325Z,3.60
2018-07-01T11:39:25.121Z,3.67
2018-07-01T11:41:55.973Z,3.20
2018-07-01T11:44:24.958Z,3.90
2018-07-01T11:46:53.779Z,3.00
2018-07-01T11:49:23.143Z,3.60
2018-07-01T11:51:51.422Z,3.90
2018-07-01T11:54:20.700Z,3.50
2018-07-01T11:56:49.021Z,3.80
2018-07-01T12:02:20.678Z,3.43
2018-07-01T12:05:02.950Z,2.97
2018-07-01T12:07:17.282Z,3.57
2018-07-01T12:09:45.558Z,3.77
2018-07-01T12:12:14.080Z,3.30
2018-07-01T12:14:42.518Z,3.53
2018-07-01T12:17:10.817Z,3.87
2018-07-01T12:19:39.190Z,3.50
2018-07-01T12:22:07.428Z,3.70
2018-07-01T12:24:35.709Z,3.50
2018-07-01T12:27:04.034Z,3.80
2018-07-01T12:29:32.266Z,3.80
2018-07-01T12:32:00.571Z,3.50
2018-07-01T12:34:28.866Z,3.57
2018-07-01T12:36:57.165Z,4.03
2018-07-01T12:39:25.430Z,3.67
2018-07-01T12:41:55.337Z,3.63
2018-07-01T12:44:23.880Z,3.47
2018-07-01T12:46:52.325Z,3.70
2018-07-01T12:49:20.749Z,3.93
2018-07-01T12:51:49.165Z,3.83
2018-07-01T12:54:17.428Z,3.70
2018-07-01T12:56:46.126Z,4.43
2018-07-01T12:59:14.437Z,4.00
2018-07-01T13:01:42.864Z,3.77
2018-07-01T13:04:11.130Z,3.83
2018-07-01T13:06:39.414Z,3.30
2018-07-01T13:09:10.808Z,3.60
2018-07-01T13:11:39.077Z,4.40
2018-07-01T13:14:07.370Z,3.73
2018-07-01T13:16:35.677Z,3.83
2018-07-01T13:19:04.002Z,4.93
2018-07-01T13:21:32.278Z,3.80
2018-07-01T13:24:00.548Z,3.67
2018-07-01T13:26:28.861Z,3.70
2018-07-01T13:28:57.107Z,3.70
2018-07-01T13:31:25.389Z,3.83
2018-07-01T13:33:53.649Z,3.60
2018-07-01T13:36:21.977Z,3.97
2018-07-01T13:38:50.252Z,4.23
2018-07-01T13:41:18.557Z,3.83
2018-07-01T13:43:46.925Z,4.60
2018-07-01T13:46:15.261Z,3.60
2018-07-01T13:48:43.605Z,4.30
2018-07-01T13:51:12.013Z,3.73
2018-07-01T13:53:40.373Z,3.63
2018-07-01T13:56:08.750Z,3.80
2018-07-01T13:58:36.946Z,4.53
2018-07-01T14:01:05.410Z,4.30
2018-07-01T14:03:33.723Z,4.10
2018-07-01T14:06:02.009Z,4.33
2018-07-01T14:08:30.379Z,3.87
2018-07-01T14:10:58.586Z,4.00
2018-07-01T14:13:26.854Z,4.30
2018-07-01T14:15:55.181Z,3.60
2018-07-01T14:18:23.446Z,4.20
2018-07-01T14:20:51.692Z,3.80
2018-07-01T14:23:19.934Z,4.00
2018-07-01T14:25:48.153Z,3.67
2018-07-01T14:28:16.725Z,3.77
2018-07-01T14:30:45.036Z,4.90
2018-07-01T14:33:13.364Z,4.50
2018-07-01T14:35:41.892Z,4.10
2018-07-01T14:38:10.115Z,4.30
2018-07-01T14:40:38.382Z,3.83
2018-07-01T14:43:06.685Z,3.83
2018-07-01T14:45:35.054Z,4.10
2018-07-01T14:48:03.416Z,4.47
2018-07-01T14:50:31.820Z,4.27
2018-07-01T14:53:00.278Z,3.83
2018-07-01T14:55:28.698Z,3.80
2018-07-01T14:57:57.106Z,3.90
2018-07-01T15:00:25.633Z,3.97
2018-07-01T15:02:53.989Z,4.00
2018-07-01T15:05:22.438Z,3.73
2018-07-01T15:07:51.074Z,3.50
2018-07-01T15:10:19.531Z,4.37
2018-07-01T15:12:48.024Z,3.70
2018-07-01T15:15:16.460Z,4.03
2018-07-01T15:17:44.856Z,3.83
2018-07-01T15:20:13.184Z,3.53
2018-07-01T15:22:41.561Z,3.57
2018-07-01T15:25:09.946Z,4.50
2018-07-01T15:27:38.229Z,4.47
2018-07-01T15:30:07.093Z,3.47
2018-07-01T15:32:35.611Z,3.63
2018-07-01T15:35:04.013Z,3.80
2018-07-01T15:37:32.399Z,3.70
2018-07-01T15:40:00.986Z,3.43
2018-07-01T15:42:29.749Z,3.67
2018-07-01T15:44:58.349Z,3.63
2018-07-01T15:47:26.952Z,3.37
2018-07-01T15:49:55.581Z,3.63
2018-07-01T15:52:24.081Z,4.47
2018-07-01T15:54:52.693Z,3.50
2018-07-01T15:57:20.926Z,4.43
2018-07-01T15:59:49.433Z,3.73
2018-07-01T16:02:17.845Z,3.13
2018-07-01T16:04:46.048Z,3.83
2018-07-01T16:07:14.301Z,3.67
2018-07-01T16:09:42.515Z,3.20
2018-07-01T16:12:11.086Z,3.50
2018-07-01T16:14:40.121Z,3.40
2018-07-01T16:17:08.496Z,3.23
2018-07-01T16:19:37.067Z,3.37
2018-07-01T16:22:05.565Z,3.43
2018-07-01T16:24:38.312Z,3.30
2018-07-01T16:27:12.345Z,3.10
2018-07-01T16:29:40.787Z,3.13
2018-07-01T16:32:09.673Z,2.87
2018-07-01T16:34:38.345Z,3.47
2018-07-01T16:37:06.678Z,3.40
2018-07-01T16:39:35.294Z,3.03
2018-07-01T16:42:03.792Z,3.53
2018-07-01T16:44:32.439Z,3.60
2018-07-01T16:47:00.846Z,4.03
2018-07-01T16:49:29.464Z,2.90
2018-07-01T16:51:57.870Z,3.30
2018-07-01T16:54:26.510Z,3.40
2018-07-01T16:56:54.781Z,3.80
2018-07-01T16:59:23.590Z,3.20
2018-07-01T17:01:52.077Z,3.70
2018-07-01T17:04:20.434Z,3.70
2018-07-01T17:06:51.232Z,4.40
2018-07-01T17:09:19.669Z,5.20
2018-07-01T17:11:48.082Z,5.60
2018-07-01T17:14:16.486Z,4.27
2018-07-01T17:16:45.079Z,3.30
2018-07-01T17:19:13.242Z,3.77
2018-07-01T17:21:41.782Z,7.10
2018-07-01T17:24:10.245Z,3.30
2018-07-01T17:26:38.623Z,3.37
2018-07-01T17:29:07.261Z,4.57
2018-07-01T17:31:41.012Z,3.70
2018-07-01T17:34:09.373Z,3.10
2018-07-01T17:36:37.773Z,3.10
2018-07-01T17:39:08.333Z,3.33
2018-07-01T17:41:36.946Z,2.80
2018-07-01T17:44:05.457Z,3.17
2018-07-01T17:46:33.969Z,3.50
2018-07-01T17:49:02.331Z,3.30
2018-07-01T17:51:30.709Z,3.07
2018-07-01T17:53:59.292Z,3.20
2018-07-01T17:56:27.597Z,2.80
2018-07-01T17:58:55.990Z,3.27
2018-07-01T18:01:24.324Z,3.33
2018-07-01T18:03:52.683Z,2.83
2018-07-01T18:06:20.802Z,3.20
2018-07-01T18:08:49.167Z,2.70
2018-07-01T18:11:17.554Z,2.93
2018-07-01T18:13:45.895Z,3.10
2018-07-01T18:16:14.003Z,3.30
2018-07-01T18:18:42.338Z,3.23
2018-07-01T18:21:10.933Z,3.00
2018-07-01T18:24:11.119Z,3.00
2018-07-01T18:26:07.589Z,3.00
2018-07-01T18:28:48.656Z,3.00
2018-07-01T18:31:04.618Z,3.40
2018-07-01T18:33:33.025Z,3.57
2018-07-01T18:36:02.027Z,3.30
2018-07-01T18:38:30.782Z,3.20
2018-07-01T18:40:59.085Z,3.03
2018-07-01T18:43:27.629Z,3.10
2018-07-01T18:45:55.900Z,3.40
2018-07-01T18:48:24.169Z,3.30
2018-07-01T18:50:52.421Z,3.10
2018-07-01T18:53:20.742Z,4.10
2018-07-01T18:55:48.967Z,3.60
2018-07-01T18:58:17.240Z,4.30
2018-07-01T19:00:45.501Z,4.40
2018-07-01T19:03:13.743Z,4.53
2018-07-01T19:05:41.985Z,5.07
2018-07-01T19:08:10.277Z,4.83
2018-07-01T19:10:38.550Z,4.70
2018-07-01T19:13:06.862Z,3.40
2018-07-01T19:15:35.089Z,3.50
2018-07-01T19:18:03.353Z,4.20
2018-07-01T19:20:31.651Z,3.77
2018-07-01T19:23:07.227Z,3.57
2018-07-01T19:25:35.513Z,3.90
2018-07-01T19:28:03.763Z,3.50
2018-07-01T19:30:32.023Z,3.50
2018-07-01T19:33:00.312Z,3.87
2018-07-01T19:35:28.575Z,5.23
2018-07-01T19:37:56.831Z,4.00
2018-07-01T19:40:25.079Z,4.47
2018-07-01T19:42:54.428Z,3.80
2018-07-01T19:45:23.487Z,4.77
2018-07-01T19:47:51.730Z,4.37
2018-07-01T19:50:19.959Z,4.40
2018-07-01T19:52:48.217Z,4.30
2018-07-01T19:55:23.057Z,4.13
2018-07-01T19:57:57.517Z,4.20
2018-07-01T20:00:25.831Z,4.50
2018-07-01T20:02:54.134Z,3.70
2018-07-01T20:05:22.505Z,4.77
2018-07-01T20:07:50.844Z,4.00
2018-07-01T20:10:19.177Z,4.00
2018-07-01T20:12:48.494Z,4.10
2018-07-01T20:15:17.501Z,4.43
2018-07-01T20:17:45.913Z,4.17
2018-07-01T20:20:14.614Z,3.90
2018-07-01T20:22:44.019Z,4.03
2018-07-01T20:25:12.350Z,4.43
2018-07-01T20:27:40.625Z,3.60
2018-07-01T20:30:08.915Z,4.17
2018-07-01T20:32:37.181Z,4.53
2018-07-01T20:35:05.736Z,3.80
2018-07-01T20:37:33.986Z,3.83
2018-07-01T20:40:02.311Z,4.07
2018-07-01T20:42:31.361Z,4.07
2018-07-01T20:45:00.280Z,3.90
2018-07-01T20:47:28.529Z,3.73
2018-07-01T20:49:56.873Z,3.70
2018-07-01T20:52:25.184Z,3.93
2018-07-01T20:54:53.525Z,3.70
2018-07-01T20:57:21.836Z,3.87
2018-07-01T20:59:50.333Z,3.30
2018-07-01T21:02:18.720Z,3.90
2018-07-01T21:04:47.306Z,3.70
2018-07-01T21:07:15.680Z,3.97
2018-07-01T21:09:44.097Z,3.50
2018-07-01T21:12:12.455Z,3.50
2018-07-01T21:14:40.896Z,3.20
2018-07-01T21:17:09.293Z,2.93
2018-07-01T21:19:37.514Z,3.43
2018-07-01T21:22:05.958Z,3.50
2018-07-01T21:24:34.318Z,3.87
2018-07-01T21:27:02.758Z,3.57
2018-07-01T21:29:31.162Z,3.60
2018-07-01T21:31:59.620Z,3.20
2018-07-01T21:34:28.001Z,3.40
2018-07-01T21:36:56.438Z,3.30
2018-07-01T21:39:24.878Z,3.10
2018-07-01T21:41:53.261Z,3.10
2018-07-01T21:44:21.767Z,3.07
2018-07-01T21:46:50.110Z,3.23
2018-07-01T21:49:18.538Z,3.10
2018-07-01T21:51:46.909Z,3.23
2018-07-01T21:54:15.361Z,3.30
2018-07-01T21:56:44.293Z,3.60
2018-07-01T21:59:12.752Z,3.27
2018-07-01T22:01:41.207Z,2.90
2018-07-01T22:04:09.622Z,2.90
2018-07-01T22:06:43.520Z,3.27
2018-07-01T22:09:11.916Z,2.80
2018-07-01T22:11:53.132Z,2.77
2018-07-01T22:14:28.438Z,3.60
2018-07-01T22:16:57.101Z,3.20
2018-07-01T22:19:25.505Z,3.50
2018-07-01T22:21:54.771Z,3.40
2018-07-01T22:24:25.025Z,3.80
2018-07-01T22:26:53.535Z,3.50
2018-07-01T22:29:21.947Z,3.70
2018-07-01T22:31:50.466Z,3.70
2018-07-01T22:34:19.525Z,3.80
2018-07-01T22:36:48.356Z,3.90
2018-07-01T22:39:18.149Z,3.80
2018-07-01T22:41:47.038Z,3.90
2018-07-01T22:44:15.410Z,3.73
2018-07-01T22:46:44.622Z,4.30
2018-07-01T22:49:13.477Z,3.90
2018-07-01T22:51:42.144Z,3.70
2018-07-01T22:54:10.508Z,3.90
2018-07-01T22:56:39.494Z,4.10
2018-07-01T22:59:07.916Z,3.87
2018-07-01T23:01:38.741Z,3.70
2018-07-01T23:04:07.262Z,3.60
2018-07-01T23:06:35.645Z,4.33
2018-07-01T23:09:05.850Z,3.70
2018-07-01T23:11:34.258Z,3.87
2018-07-01T23:14:02.727Z,3.97
2018-07-01T23:16:30.951Z,4.00
2018-07-01T23:18:59.789Z,4.30
2018-07-01T23:21:28.279Z,3.80
2018-07-01T23:23:56.712Z,4.00
2018-07-01T23:26:25.174Z,4.20
2018-07-01T23:28:53.617Z,3.80
2018-07-01T23:31:22.078Z,3.80
2018-07-01T23:33:50.470Z,3.53
2018-07-01T23:36:18.891Z,4.07
2018-07-01T23:38:47.299Z,3.77
2018-07-01T23:41:15.758Z,4.00
2018-07-01T23:43:44.183Z,3.97
2018-07-01T23:46:12.589Z,4.23
2018-07-01T23:48:41.013Z,4.00
2018-07-01T23:51:09.460Z,3.70
2018-07-01T23:53:37.879Z,4.00
2018-07-01T23:56:06.424Z,4.10
2018-07-01T23:58:34.865Z,3.67
